Time;durP1;ratioP1;P1;durP2;ratioP2;P2;SDS_P1;SDS_P2;PMS_P1;PMS_P2;Temp;Humidity;BMP_temperature;BMP_pressure;BME280_temperature;BME280_humidity;BME280_pressure;Samples;Min_cycle;Max_cycle;Signal;HPM_P1;HPM_P2
2022/02/01 00:02:26;;;;;;;2.37;1.57;;;;;;;3.98;86.36;95222.09;5058580;28;20232;-83
2022/02/01 00:05:03;;;;;;;1.77;1.50;;;;;;;3.94;86.85;95229.22;5058154;28;20208;-84
2022/02/01 00:07:39;;;;;;;2.13;1.50;;;;;;;3.88;85.98;95227.25;5058529;28;20225;-84
2022/02/01 00:10:14;;;;;;;1.60;1.50;;;;;;;3.93;86.12;95231.91;5055975;28;20217;-84
2022/02/01 00:12:51;;;;;;;2.00;1.60;;;;;;;3.99;86.55;95223.69;5057181;28;20201;-83
2022/02/01 00:15:56;;;;;;;1.40;1.30;;;;;;;3.92;86.01;95209.94;5059211;28;20264;-84
2022/02/01 00:18:37;;;;;;;1.50;1.40;;;;;;;3.86;86.66;95218.94;5054141;28;20229;-83
2022/02/01 00:35:09;;;;;;;1.37;1.27;;;;;;;3.74;89.45;95209.91;5057153;28;20229;-83
2022/02/01 00:37:39;;;;;;;1.30;1.20;;;;;;;3.66;90.03;95215.72;5056877;28;20221;-84
2022/02/01 00:40:12;;;;;;;1.57;1.47;;;;;;;3.64;90.60;95222.72;5057749;28;20251;-83
2022/02/01 00:42:39;;;;;;;1.47;1.37;;;;;;;3.55;91.08;95228.66;5058403;28;20625;-84
2022/02/01 00:45:06;;;;;;;1.50;1.40;;;;;;;3.59;91.48;95219.00;5058589;28;20201;-83
2022/02/01 00:47:33;;;;;;;1.33;1.23;;;;;;;3.66;91.10;95217.47;5057422;28;20222;-84
2022/02/01 00:49:59;;;;;;;1.40;1.30;;;;;;;3.72;90.32;95222.78;5058019;28;20720;-85
2022/02/01 00:52:28;;;;;;;1.67;1.10;;;;;;;3.62;91.53;95226.34;5057645;28;20201;-84
2022/02/01 00:54:54;;;;;;;1.03;1.00;;;;;;;3.59;91.67;95217.25;5057989;28;22120;-84
2022/02/01 00:57:21;;;;;;;1.00;1.00;;;;;;;3.55;91.72;95228.66;5057062;28;20225;-85
2022/02/01 00:59:49;;;;;;;1.30;1.20;;;;;;;3.60;91.56;95243.50;5057240;28;20200;-84
2022/02/01 01:02:15;;;;;;;0.90;0.90;;;;;;;3.53;91.85;95248.34;5056818;28;20236;-84
2022/02/01 01:04:42;;;;;;;1.53;1.23;;;;;;;3.53;92.05;95250.91;5056449;28;20206;-84
2022/02/01 01:07:08;;;;;;;0.87;0.87;;;;;;;3.51;92.08;95240.06;5057158;28;20279;-83
2022/02/01 01:09:35;;;;;;;1.07;1.00;;;;;;;3.51;92.21;95249.44;5057339;28;20212;-84
2022/02/01 01:12:01;;;;;;;1.10;1.00;;;;;;;3.44;92.80;95250.00;5055702;28;20217;-84
2022/02/01 01:14:51;;;;;;;1.07;0.97;;;;;;;3.41;93.18;95246.94;5059199;28;20197;-84
2022/02/01 01:45:03;;;;;;;1.43;1.30;;;;;;;3.34;93.92;95296.78;5047729;28;20213;-84
2022/02/01 01:53:16;;;;;;;1.90;1.70;;;;;;;3.42;93.75;95312.97;5057480;28;20251;-84
2022/02/01 01:55:46;;;;;;;1.60;1.50;;;;;;;3.46;93.47;95316.03;5060403;28;20201;-84
2022/02/01 01:58:13;;;;;;;1.70;1.60;;;;;;;3.39;93.94;95318.31;5059884;28;20236;-84
2022/02/01 02:01:00;;;;;;;1.83;1.73;;;;;;;3.48;93.95;95317.47;5060580;28;20874;-83
2022/02/01 02:03:27;;;;;;;1.80;1.70;;;;;;;3.46;93.87;95314.25;5060440;28;20205;-84
2022/02/01 02:05:55;;;;;;;1.90;1.80;;;;;;;3.43;94.84;95323.94;5059487;28;20189;-84
2022/02/01 02:08:22;;;;;;;1.87;1.77;;;;;;;3.46;94.68;95326.22;5059945;28;20226;-85
2022/02/01 02:10:57;;;;;;;2.03;1.93;;;;;;;3.36;94.78;95325.44;5059229;28;20304;-84
2022/02/01 02:16:04;;;;;;;2.27;2.07;;;;;;;3.43;95.56;95332.38;5036727;28;20193;-85
2022/02/01 02:18:33;;;;;;;2.00;1.90;;;;;;;3.32;96.11;95324.91;5059398;28;20225;-84
2022/02/01 02:21:03;;;;;;;1.97;1.87;;;;;;;3.32;96.33;95326.63;5060040;28;20758;-84
2022/02/01 02:23:29;;;;;;;2.63;2.43;;;;;;;3.35;96.07;95322.09;5059872;28;20265;-83
2022/02/01 02:25:56;;;;;;;3.33;2.57;;;;;;;3.38;96.35;95326.91;5060070;28;20212;-85
2022/02/01 02:28:25;;;;;;;2.63;2.43;;;;;;;3.43;96.22;95329.84;5059410;28;20225;-83
2022/02/01 02:30:53;;;;;;;2.73;2.53;;;;;;;3.51;95.77;95333.41;5058861;28;20221;-84
2022/02/01 02:33:20;;;;;;;4.13;2.97;;;;;;;3.52;95.48;95330.72;5059206;28;20205;-83
2022/02/01 02:35:53;;;;;;;3.10;2.80;;;;;;;3.54;95.33;95333.94;5059590;28;20202;-84
2022/02/01 02:38:29;;;;;;;2.93;2.50;;;;;;;3.51;94.87;95344.41;5058167;28;20223;-84
2022/02/01 02:41:06;;;;;;;3.20;2.90;;;;;;;3.57;94.37;95350.69;5051895;28;20232;-84
2022/02/01 02:46:22;;;;;;;3.10;2.90;;;;;;;3.51;95.70;95361.41;5060040;28;20216;-85
2022/02/01 02:48:49;;;;;;;2.93;2.73;;;;;;;3.54;95.37;95376.41;5058736;28;20213;-84
2022/02/01 02:51:15;;;;;;;3.30;2.90;;;;;;;3.51;94.88;95382.56;5058124;28;20606;-83
2022/02/01 02:53:43;;;;;;;3.10;2.90;;;;;;;3.60;94.85;95389.38;5058846;28;20202;-85
2022/02/01 02:56:10;;;;;;;3.10;2.90;;;;;;;3.63;93.74;95396.75;5059265;28;20197;-84
2022/02/01 02:58:36;;;;;;;3.60;3.27;;;;;;;3.62;94.69;95404.53;5058755;28;20206;-83
2022/02/01 03:01:03;;;;;;;3.77;3.47;;;;;;;3.70;94.23;95409.72;5059154;28;20224;-84
2022/02/01 03:03:30;;;;;;;3.60;3.30;;;;;;;3.69;93.02;95419.09;5059159;28;20192;-84
2022/02/01 03:05:56;;;;;;;3.50;3.20;;;;;;;3.61;92.52;95434.28;5057018;28;20197;-83
2022/02/01 03:08:24;;;;;;;3.70;3.27;;;;;;;3.69;93.05;95431.81;5058878;28;20208;-84
2022/02/01 03:10:52;;;;;;;3.90;3.50;;;;;;;3.65;93.07;95435.59;5058419;28;20544;-84
2022/02/01 03:13:23;;;;;;;3.70;3.40;;;;;;;3.68;92.48;95454.88;5059754;28;20200;-83
2022/02/01 03:15:55;;;;;;;3.60;3.30;;;;;;;3.71;92.12;95450.31;5058305;28;20251;-83
2022/02/01 03:21:05;;;;;;;4.20;3.80;;;;;;;3.84;92.00;95455.13;5049052;28;20220;-83
2022/02/01 03:23:32;;;;;;;3.83;3.43;;;;;;;3.73;91.66;95463.72;5059833;28;20307;-84
2022/02/01 03:26:00;;;;;;;3.50;3.20;;;;;;;3.69;91.64;95471.75;5060018;28;20198;-84
2022/02/01 03:28:26;;;;;;;3.63;3.30;;;;;;;3.70;92.35;95463.97;5060608;28;20197;-84
2022/02/01 03:30:52;;;;;;;3.77;3.40;;;;;;;3.68;92.29;95463.31;5063323;28;20217;-84
2022/02/01 03:33:19;;;;;;;4.10;3.53;;;;;;;3.57;92.68;95468.56;5061440;28;20229;-84
2022/02/01 03:35:45;;;;;;;3.57;3.27;;;;;;;3.48;92.87;95469.38;5060969;28;20201;-84
2022/02/01 03:38:12;;;;;;;3.97;3.63;;;;;;;3.44;92.26;95468.84;5059721;28;20201;-84
2022/02/01 03:40:38;;;;;;;4.03;3.63;;;;;;;3.42;92.55;95472.47;5060169;28;20217;-84
2022/02/01 03:43:06;;;;;;;4.07;3.67;;;;;;;3.48;92.22;95480.34;5059885;28;20221;-84
2022/02/01 03:45:32;;;;;;;4.10;3.77;;;;;;;3.44;92.13;95484.13;5059922;28;20204;-84
2022/02/01 03:47:59;;;;;;;4.20;3.80;;;;;;;3.45;92.10;95490.81;5060407;28;20204;-84
2022/02/01 03:50:25;;;;;;;4.50;3.87;;;;;;;3.38;91.92;95502.47;5061151;28;20214;-83
2022/02/01 03:52:52;;;;;;;4.50;4.10;;;;;;;3.34;92.33;95513.03;5059254;28;20240;-85
2022/02/01 03:55:19;;;;;;;5.13;4.60;;;;;;;3.36;91.50;95521.34;5060397;28;20611;-84
2022/02/01 03:57:46;;;;;;;7.43;4.50;;;;;;;3.19;91.19;95530.44;5059587;28;20198;-84
2022/02/01 04:00:16;;;;;;;5.27;4.77;;;;;;;3.09;92.53;95540.59;5058311;28;20200;-84
2022/02/01 04:02:42;;;;;;;5.10;4.30;;;;;;;3.10;92.19;95556.66;5057808;28;20295;-84
2022/02/01 04:05:09;;;;;;;5.63;4.90;;;;;;;3.07;91.50;95545.03;5059029;28;20198;-84
2022/02/01 04:07:35;;;;;;;5.93;5.10;;;;;;;3.09;91.55;95571.13;5057953;28;20283;-84
2022/02/01 04:10:02;;;;;;;5.80;4.87;;;;;;;3.06;91.90;95562.97;5050239;28;20197;-84
2022/02/01 04:12:29;;;;;;;5.43;4.93;;;;;;;3.13;90.50;95575.03;5056668;28;20241;-84
2022/02/01 04:14:57;;;;;;;5.80;5.07;;;;;;;3.09;89.82;95566.03;5058050;28;20257;-83
2022/02/01 04:17:25;;;;;;;6.00;5.40;;;;;;;3.20;90.11;95565.13;5057567;28;20204;-84
2022/02/01 04:19:51;;;;;;;5.87;5.07;;;;;;;3.25;88.72;95562.19;5058592;28;20208;-84
2022/02/01 04:22:18;;;;;;;5.13;4.63;;;;;;;3.32;87.94;95555.63;5055485;28;20260;-84
2022/02/01 04:24:46;;;;;;;5.63;4.57;;;;;;;3.40;87.10;95569.31;5057484;28;20208;-83
2022/02/01 04:27:25;;;;;;;5.77;5.17;;;;;;;3.49;86.53;95580.41;5052219;28;20198;-85
2022/02/01 04:30:05;;;;;;;5.37;4.83;;;;;;;3.50;86.83;95584.56;5057795;28;20208;-83
2022/02/01 04:32:35;;;;;;;5.47;4.60;;;;;;;3.55;85.68;95581.63;5058032;28;20293;-84
2022/02/01 04:35:01;;;;;;;5.43;4.63;;;;;;;3.59;85.32;95568.50;5058321;28;20198;-83
2022/02/01 04:37:28;;;;;;;5.80;5.20;;;;;;;3.65;85.46;95580.72;5058762;28;20201;-84
2022/02/01 04:39:56;;;;;;;5.07;4.57;;;;;;;3.61;85.19;95578.56;5057100;28;20212;-84
2022/02/01 04:42:23;;;;;;;6.20;4.90;;;;;;;3.55;84.39;95574.00;5045772;28;20261;-84
2022/02/01 04:44:50;;;;;;;4.87;4.37;;;;;;;3.48;83.76;95577.06;5057850;28;20193;-84
2022/02/01 04:47:16;;;;;;;5.10;4.37;;;;;;;3.44;82.82;95574.94;5056536;28;20208;-84
2022/02/01 04:49:44;;;;;;;5.27;4.77;;;;;;;3.50;83.64;95586.31;5058430;28;20221;-84
2022/02/01 04:52:11;;;;;;;4.97;4.53;;;;;;;3.39;83.70;95587.25;5057331;28;20240;-83
2022/02/01 04:54:38;;;;;;;5.47;4.70;;;;;;;3.30;83.80;95586.28;5058727;28;20198;-83
2022/02/01 04:57:05;;;;;;;5.17;4.60;;;;;;;3.29;83.70;95587.22;5058251;28;20261;-83
2022/02/01 04:59:32;;;;;;;5.10;4.60;;;;;;;3.32;83.29;95602.22;5058755;28;20213;-84
2022/02/01 05:01:58;;;;;;;4.80;4.30;;;;;;;3.32;82.97;95604.78;5057105;28;20217;-83
2022/02/01 05:04:24;;;;;;;5.00;4.60;;;;;;;3.21;82.92;95627.00;5058975;28;20213;-84
2022/02/01 05:06:54;;;;;;;5.97;5.07;;;;;;;3.18;83.03;95633.13;5058339;28;20204;-83
2022/02/01 05:09:21;;;;;;;5.20;4.70;;;;;;;3.32;84.66;95624.31;5052621;28;20220;-83
2022/02/01 05:11:49;;;;;;;5.37;4.87;;;;;;;3.37;83.53;95638.28;5059236;28;20225;-83
2022/02/01 05:14:19;;;;;;;6.00;5.20;;;;;;;3.34;83.19;95647.91;5057194;28;20304;-83
2022/02/01 05:16:56;;;;;;;6.53;4.90;;;;;;;3.34;82.45;95663.16;5061050;28;20202;-83
2022/02/01 05:19:34;;;;;;;6.30;5.13;;;;;;;3.40;82.06;95666.00;5073023;22;20312;-85
2022/02/01 05:22:07;;;;;;;6.37;4.87;;;;;;;3.31;80.72;95668.50;5055787;28;20280;-85
2022/02/01 05:24:37;;;;;;;5.20;4.70;;;;;;;3.37;81.61;95671.34;5055840;28;20272;-85
2022/02/01 05:27:06;;;;;;;6.00;5.10;;;;;;;3.28;81.60;95672.13;5067446;28;20200;-85
2022/02/01 05:29:33;;;;;;;5.33;4.83;;;;;;;3.38;80.74;95672.16;5069378;28;20216;-85
2022/02/01 05:32:04;;;;;;;5.80;4.87;;;;;;;3.41;81.16;95674.44;5061984;28;20220;-84
2022/02/01 05:34:31;;;;;;;5.73;4.60;;;;;;;3.41;80.55;95679.53;5053756;28;20892;-86
2022/02/01 05:36:58;;;;;;;5.83;5.20;;;;;;;3.41;81.56;95680.34;5051264;28;20194;-84
2022/02/01 05:39:27;;;;;;;6.10;5.50;;;;;;;3.43;81.79;95680.22;5051203;28;20221;-84
2022/02/01 05:41:56;;;;;;;6.67;5.47;;;;;;;3.47;80.98;95691.72;5043297;28;20200;-85
2022/02/01 05:44:23;;;;;;;6.20;5.60;;;;;;;3.45;81.61;95685.97;5044887;28;20715;-84
2022/02/01 05:46:49;;;;;;;7.17;5.03;;;;;;;3.58;82.13;95693.38;5040171;28;20214;-85
2022/02/01 05:49:17;;;;;;;5.87;5.27;;;;;;;3.63;81.98;95699.69;5045321;28;20217;-85
2022/02/01 05:51:44;;;;;;;6.23;5.63;;;;;;;3.70;81.89;95708.41;5041811;28;20226;-85
2022/02/01 05:54:10;;;;;;;6.00;5.40;;;;;;;3.68;82.69;95712.81;5042917;28;20201;-85
2022/02/01 05:56:38;;;;;;;6.40;5.60;;;;;;;3.71;82.56;95720.19;5046755;28;20222;-85
2022/02/01 05:59:04;;;;;;;6.30;5.60;;;;;;;3.60;83.54;95730.50;5043245;28;20233;-84
2022/02/01 06:01:31;;;;;;;5.97;5.10;;;;;;;3.70;83.08;95736.41;5051429;28;20204;-84
2022/02/01 06:03:57;;;;;;;6.17;5.57;;;;;;;3.76;82.97;95745.28;5051151;28;20203;-84
2022/02/01 06:06:24;;;;;;;6.77;5.53;;;;;;;3.77;82.65;95742.59;5050438;28;20197;-85
2022/02/01 06:08:50;;;;;;;7.73;5.23;;;;;;;3.73;82.40;95740.44;5035285;28;20241;-85
2022/02/01 06:11:17;;;;;;;5.33;4.53;;;;;;;3.71;82.65;95743.09;5053085;28;20229;-84
2022/02/01 06:13:50;;;;;;;5.37;4.53;;;;;;;3.67;82.55;95740.94;5042321;28;20202;-82
2022/02/01 06:16:16;;;;;;;6.50;4.40;;;;;;;3.67;82.42;95741.75;5040291;28;20205;-87
2022/02/01 06:18:43;;;;;;;4.60;4.20;;;;;;;3.69;82.31;95746.72;5041288;28;20225;-85
2022/02/01 06:21:09;;;;;;;5.53;4.30;;;;;;;3.71;81.90;95735.47;5052781;28;20202;-82
2022/02/01 06:23:36;;;;;;;4.53;3.90;;;;;;;3.68;82.47;95734.91;5044493;28;20201;-84
2022/02/01 06:26:02;;;;;;;5.43;4.33;;;;;;;3.66;82.58;95735.03;5044818;28;20209;-85
2022/02/01 06:28:29;;;;;;;5.40;4.90;;;;;;;3.72;82.75;95737.09;5036340;28;20348;-84
2022/02/01 06:30:57;;;;;;;4.70;4.20;;;;;;;3.64;83.35;95741.22;5052974;28;20208;-84
2022/02/01 06:33:25;;;;;;;5.60;4.50;;;;;;;3.54;85.46;95741.19;5044618;28;20229;-84
2022/02/01 06:35:53;;;;;;;5.10;4.53;;;;;;;3.50;86.54;95736.47;5044453;28;20233;-84
2022/02/01 06:38:19;;;;;;;15.57;10.57;;;;;;;3.57;87.48;95742.66;5044490;28;20261;-85
2022/02/01 06:40:47;;;;;;;12.17;10.10;;;;;;;3.60;89.51;95738.13;5031483;28;20202;-84
2022/02/01 06:43:15;;;;;;;8.80;6.00;;;;;;;3.61;93.54;95737.19;5032467;28;20225;-85
2022/02/01 06:45:42;;;;;;;5.07;4.40;;;;;;;3.62;90.76;95736.25;5032811;28;20281;-85
2022/02/01 06:48:10;;;;;;;4.53;4.13;;;;;;;3.55;89.52;95742.78;5031492;28;20237;-84
2022/02/01 06:50:36;;;;;;;4.10;3.70;;;;;;;3.52;89.05;95740.50;5032325;28;20198;-84
2022/02/01 06:53:03;;;;;;;3.87;3.47;;;;;;;3.40;89.97;95755.06;5032307;28;20222;-85
2022/02/01 06:55:43;;;;;;;3.57;3.27;;;;;;;3.33;90.36;95751.44;5026427;28;20217;-85
2022/02/01 06:58:11;;;;;;;3.53;2.93;;;;;;;3.35;90.64;95746.22;5031548;28;20222;-84
2022/02/01 07:00:37;;;;;;;3.00;2.70;;;;;;;3.37;90.64;95762.16;5053864;28;20565;-85
2022/02/01 07:03:04;;;;;;;3.43;2.97;;;;;;;3.40;90.75;95772.09;5049804;28;20228;-84
2022/02/01 07:05:32;;;;;;;2.97;2.70;;;;;;;3.47;90.31;95778.25;5052140;28;20206;-85
2022/02/01 07:07:58;;;;;;;2.73;2.50;;;;;;;3.42;90.74;95776.13;5044278;28;20221;-85
2022/02/01 07:10:25;;;;;;;3.13;2.80;;;;;;;3.39;91.67;95784.00;5050630;28;20240;-85
2022/02/01 07:12:51;;;;;;;2.50;2.30;;;;;;;3.38;91.28;95779.84;5050707;28;20225;-84
2022/02/01 07:15:18;;;;;;;2.87;2.60;;;;;;;3.30;91.27;95774.56;5051842;28;20197;-85
2022/02/01 07:17:46;;;;;;;4.53;3.00;;;;;;;3.20;91.38;95760.22;5042584;28;20206;-85
2022/02/01 07:20:13;;;;;;;8.97;3.30;;;;;;;3.13;90.65;95765.00;5043946;28;20202;-84
2022/02/01 07:22:43;;;;;;;4.93;3.23;;;;;;;3.19;90.72;95778.94;5031743;28;20234;-85
2022/02/01 07:25:15;;;;;;;5.17;3.20;;;;;;;3.20;89.99;95795.81;5040893;28;20206;-84
2022/02/01 07:27:42;;;;;;;15.10;6.97;;;;;;;3.12;89.05;95793.91;5037323;28;20212;-85
2022/02/01 07:30:12;;;;;;;12.47;5.77;;;;;;;3.03;88.41;95785.31;5044730;28;20828;-84
2022/02/01 07:32:38;;;;;;;11.27;3.67;;;;;;;3.13;87.18;95798.06;5040868;28;20251;-84
2022/02/01 07:35:06;;;;;;;8.23;3.50;;;;;;;3.08;85.94;95805.25;5042589;28;20204;-84
2022/02/01 07:37:33;;;;;;;11.70;3.70;;;;;;;3.12;85.97;95811.72;5048495;28;20204;-85
2022/02/01 07:40:02;;;;;;;9.43;3.63;;;;;;;3.08;84.53;95818.78;5050328;28;20396;-85
2022/02/01 07:42:29;;;;;;;8.63;4.43;;;;;;;3.10;83.97;95832.19;5043229;28;20246;-85
2022/02/01 07:44:58;;;;;;;10.50;3.90;;;;;;;3.14;83.95;95832.75;5043490;28;20191;-84
2022/02/01 07:47:25;;;;;;;9.73;3.30;;;;;;;3.18;83.59;95838.38;5049693;28;20194;-84
2022/02/01 07:49:51;;;;;;;12.17;3.70;;;;;;;3.22;83.73;95848.19;5045631;28;20221;-85
2022/02/01 07:52:18;;;;;;;9.27;3.03;;;;;;;3.21;81.68;95840.69;5046637;28;20753;-85
2022/02/01 07:54:45;;;;;;;7.73;2.87;;;;;;;3.03;80.71;95838.72;5043600;28;20194;-85
2022/02/01 07:57:13;;;;;;;5.53;2.57;;;;;;;3.03;81.47;95835.38;5046463;28;20205;-86
2022/02/01 07:59:40;;;;;;;6.53;2.80;;;;;;;3.06;80.65;95842.75;5050681;28;20227;-85
2022/02/01 08:02:17;;;;;;;9.90;3.33;;;;;;;3.07;81.46;95840.09;5037340;28;20234;-84
2022/02/01 08:04:43;;;;;;;11.63;3.60;;;;;;;2.97;80.68;95844.28;5051602;28;20197;-83
2022/02/01 08:07:10;;;;;;;10.07;3.40;;;;;;;3.04;81.26;95850.50;5056271;28;20201;-83
2022/02/01 08:09:39;;;;;;;10.93;3.80;;;;;;;3.05;80.96;95857.19;5054901;28;20213;-83
2022/02/01 08:12:15;;;;;;;7.53;3.60;;;;;;;3.00;81.27;95844.03;5054859;28;20232;-83
2022/02/01 08:17:42;;;;;;;11.37;3.80;;;;;;;2.91;81.28;95849.84;4999982;28;20247;-83
2022/02/01 08:20:12;;;;;;;12.17;3.50;;;;;;;2.94;81.09;95854.69;5047348;28;20201;-85
2022/02/01 08:23:00;;;;;;;9.80;3.77;;;;;;;2.94;80.66;95864.06;5047092;28;20185;-85
2022/02/01 08:25:25;;;;;;;10.67;3.50;;;;;;;2.91;80.13;95861.75;5047710;28;20216;-85
2022/02/01 08:27:54;;;;;;;12.63;3.60;;;;;;;3.02;79.55;95866.81;5045788;28;20225;-85
2022/02/01 08:30:22;;;;;;;13.37;4.30;;;;;;;2.90;78.53;95877.94;5051134;28;20696;-85
2022/02/01 08:32:49;;;;;;;8.80;3.23;;;;;;;2.96;78.68;95872.38;5047876;28;20221;-85
2022/02/01 08:35:16;;;;;;;9.70;3.63;;;;;;;2.89;77.79;95877.13;5050345;28;20240;-86
2022/02/01 08:37:42;;;;;;;21.20;9.57;;;;;;;3.01;78.00;95872.81;5049322;28;20194;-85
2022/02/01 08:40:12;;;;;;;10.13;3.77;;;;;;;3.02;78.13;95882.06;5044394;28;20220;-86
2022/02/01 08:42:40;;;;;;;10.53;3.07;;;;;;;2.96;76.49;95911.34;5043763;28;20204;-85
2022/02/01 08:45:09;;;;;;;14.13;3.63;;;;;;;3.32;99.17;95896.59;5050056;28;20216;-83
2022/02/01 08:47:37;;;;;;;8.43;2.87;;;;;;;4.07;100.00;95906.47;5048587;28;20246;-83
2022/02/01 08:50:05;;;;;;;8.40;3.27;;;;;;;3.94;73.11;95903.34;5042330;28;20189;-85
2022/02/01 08:52:39;;;;;;;11.13;3.50;;;;;;;3.73;73.45;95901.66;5050113;28;20225;-85
2022/02/01 08:55:08;;;;;;;11.63;2.97;;;;;;;3.45;73.44;95915.03;5049065;28;20206;-85
2022/02/01 08:57:34;;;;;;;10.80;3.53;;;;;;;3.33;74.00;95916.00;5034877;28;20208;-86
2022/02/01 09:00:05;;;;;;;15.83;3.30;;;;;;;3.37;77.89;95905.47;5031381;28;20584;-86
2022/02/01 09:02:32;;;;;;;9.93;3.17;;;;;;;3.34;75.12;95918.44;5039232;28;20208;-85
2022/02/01 09:05:00;;;;;;;9.03;3.00;;;;;;;3.33;74.67;95908.38;5047060;28;20205;-86
2022/02/01 09:07:28;;;;;;;8.40;2.83;;;;;;;3.26;74.70;95903.00;5047959;28;20206;-86
2022/02/01 09:09:55;;;;;;;10.10;3.40;;;;;;;3.23;75.70;95907.53;5047086;28;20225;-86
2022/02/01 09:12:22;;;;;;;7.80;2.63;;;;;;;3.15;75.72;95914.94;5054629;28;20710;-85
2022/02/01 09:14:48;;;;;;;11.90;3.20;;;;;;;3.15;76.06;95912.41;5036595;28;20251;-85
2022/02/01 09:17:15;;;;;;;10.73;3.30;;;;;;;3.10;76.21;95922.94;5040717;28;20201;-85
2022/02/01 09:19:42;;;;;;;10.47;3.10;;;;;;;3.12;75.17;95924.44;5036286;28;20237;-85
2022/02/01 09:22:11;;;;;;;9.97;2.50;;;;;;;3.21;74.81;95932.28;5040225;28;20205;-86
2022/02/01 09:24:37;;;;;;;7.60;2.90;;;;;;;3.17;74.23;95921.53;5054260;28;20212;-85
2022/02/01 09:27:06;;;;;;;8.23;3.30;;;;;;;3.19;74.68;95919.69;5046872;28;20618;-85
2022/02/01 09:29:33;;;;;;;8.03;3.00;;;;;;;3.10;74.46;95907.69;5046114;28;20217;-85
2022/02/01 09:32:00;;;;;;;15.43;5.13;;;;;;;3.19;74.63;95896.78;5037204;28;20265;-85
2022/02/01 09:34:28;;;;;;;11.80;3.87;;;;;;;3.29;73.95;95912.91;5053864;28;20229;-85
2022/02/01 09:36:55;;;;;;;9.23;3.43;;;;;;;3.40;74.38;95912.06;5051853;28;20199;-84
2022/02/01 09:39:24;;;;;;;10.87;3.50;;;;;;;3.29;75.00;95920.53;5045735;28;20217;-86
2022/02/01 09:41:52;;;;;;;9.27;3.53;;;;;;;3.31;75.41;95920.41;5051251;28;20232;-85
2022/02/01 09:44:19;;;;;;;10.00;3.17;;;;;;;3.31;75.03;95933.94;5052118;28;20609;-86
2022/02/01 09:46:48;;;;;;;7.53;2.67;;;;;;;3.33;74.54;95934.63;5049147;28;20236;-84
2022/02/01 09:49:16;;;;;;;9.37;2.80;;;;;;;3.35;74.92;95922.59;5051005;28;20218;-85
2022/02/01 09:51:43;;;;;;;8.07;2.70;;;;;;;3.41;74.97;95923.84;5045483;28;20689;-85
2022/02/01 09:54:10;;;;;;;9.90;2.60;;;;;;;3.39;75.00;95941.78;5048048;28;20249;-85
2022/02/01 09:56:38;;;;;;;11.13;3.80;;;;;;;3.47;74.76;95941.16;5052384;28;20204;-86
2022/02/01 09:59:14;;;;;;;5.93;2.20;;;;;;;3.42;74.52;95938.19;5046250;28;20770;-86
2022/02/01 10:01:44;;;;;;;10.80;2.60;;;;;;;3.44;74.68;95952.41;5051000;28;20197;-85
2022/02/01 10:04:11;;;;;;;5.97;1.93;;;;;;;3.33;74.09;95949.91;5052439;28;20205;-85
2022/02/01 10:06:39;;;;;;;8.50;2.33;;;;;;;3.45;73.75;95943.03;5050667;28;20224;-85
2022/02/01 10:09:07;;;;;;;5.50;2.43;;;;;;;3.42;74.40;95948.38;5046564;28;20214;-84
2022/02/01 10:11:41;;;;;;;8.10;2.03;;;;;;;3.37;73.61;95930.91;5052014;28;20204;-85
2022/02/01 10:14:10;;;;;;;6.97;2.40;;;;;;;3.35;73.44;95942.97;5051362;28;20210;-84
2022/02/01 10:16:43;;;;;;;7.83;2.40;;;;;;;3.26;73.06;95945.44;5051054;28;20220;-85
2022/02/01 10:19:12;;;;;;;7.00;2.17;;;;;;;3.22;74.26;95949.97;5048157;28;20222;-84
2022/02/01 10:21:49;;;;;;;10.27;2.30;;;;;;;3.27;73.87;95939.44;5045520;28;20194;-85
2022/02/01 10:24:27;;;;;;;6.30;2.23;;;;;;;3.21;73.46;95934.81;5047685;28;20201;-85
2022/02/01 10:27:05;;;;;;;10.37;2.83;;;;;;;3.31;74.17;95943.31;5045374;28;20567;-83
2022/02/01 10:29:31;;;;;;;7.53;2.40;;;;;;;3.43;73.31;95943.16;5050113;28;20244;-83
2022/02/01 10:31:59;;;;;;;8.40;2.33;;;;;;;3.38;72.44;95940.16;5041617;28;20197;-84
2022/02/01 10:34:40;;;;;;;7.47;2.53;;;;;;;3.54;72.72;95944.03;5048012;28;20214;-83
2022/02/01 10:37:17;;;;;;;8.43;2.57;;;;;;;3.44;72.80;95926.97;5050685;28;20201;-83
2022/02/01 10:39:44;;;;;;;8.30;2.57;;;;;;;3.47;73.08;95934.31;5045876;28;20228;-83
2022/02/01 10:42:15;;;;;;;8.17;2.60;;;;;;;3.38;72.71;95926.63;5046503;28;20248;-84
2022/02/01 10:44:44;;;;;;;5.57;2.37;;;;;;;3.41;72.73;95918.75;5049034;28;20201;-81
2022/02/01 10:47:12;;;;;;;7.03;2.60;;;;;;;3.39;72.01;95920.63;5049486;28;20190;-84
2022/02/01 10:49:39;;;;;;;7.30;2.00;;;;;;;3.39;72.05;95918.88;5045688;28;20236;-85
2022/02/01 10:52:08;;;;;;;8.47;2.47;;;;;;;3.44;71.09;95904.06;5050821;28;20193;-85
2022/02/01 10:54:36;;;;;;;6.47;2.80;;;;;;;3.49;70.81;95913.84;5047724;28;20217;-85
2022/02/01 10:57:05;;;;;;;6.23;2.43;;;;;;;3.44;70.79;95905.78;5051509;28;20926;-86
2022/02/01 10:59:33;;;;;;;4.63;2.23;;;;;;;3.37;70.23;95900.38;5046963;28;20237;-85
2022/02/01 11:02:03;;;;;;;5.17;2.43;;;;;;;3.45;70.10;95907.41;5046966;28;20213;-86
2022/02/01 11:04:31;;;;;;;6.73;2.50;;;;;;;3.49;70.31;95898.56;5046351;28;20196;-85
2022/02/01 11:06:57;;;;;;;7.67;2.30;;;;;;;3.54;69.84;95910.94;5047155;28;20198;-85
2022/02/01 11:09:28;;;;;;;6.50;2.13;;;;;;;3.62;68.96;95900.94;5046286;28;20216;-86
2022/02/01 11:11:56;;;;;;;9.27;4.37;;;;;;;3.64;68.44;95904.16;5046278;28;20193;-85
2022/02/01 11:14:24;;;;;;;7.67;2.77;;;;;;;3.60;68.08;95926.50;5047150;28;21880;-85
2022/02/01 11:17:03;;;;;;;4.07;2.30;;;;;;;3.60;67.88;95911.25;5043463;28;20208;-84
2022/02/01 11:19:31;;;;;;;6.80;2.20;;;;;;;3.70;68.24;95919.72;5046559;28;20640;-85
2022/02/01 11:21:57;;;;;;;3.87;1.87;;;;;;;3.60;68.39;95903.59;5047717;28;20193;-85
2022/02/01 11:24:32;;;;;;;5.47;2.20;;;;;;;3.65;68.92;95903.22;5051316;28;20189;-85
2022/02/01 11:27:14;;;;;;;6.23;2.27;;;;;;;3.69;69.62;95897.75;5050015;28;20242;-85
2022/02/01 11:30:01;;;;;;;5.03;2.20;;;;;;;3.83;69.76;95888.16;5048931;28;20571;-86
2022/02/01 11:32:33;;;;;;;5.90;2.33;;;;;;;3.88;69.79;95884.28;5050263;28;20193;-85
2022/02/01 11:35:05;;;;;;;2.57;1.90;;;;;;;3.93;69.47;95878.81;5065962;22;20234;-84
2022/02/01 11:37:32;;;;;;;5.33;2.00;;;;;;;3.98;69.68;95876.69;5037453;28;20202;-84
2022/02/01 11:39:59;;;;;;;3.70;2.20;;;;;;;4.06;69.22;95866.66;5034266;28;20226;-84
2022/02/01 11:42:33;;;;;;;7.43;2.30;;;;;;;4.14;68.87;95856.63;5039199;28;20199;-84
2022/02/01 11:45:01;;;;;;;4.83;2.20;;;;;;;4.20;69.71;95863.75;5038905;28;20402;-84
2022/02/01 11:47:35;;;;;;;3.43;2.17;;;;;;;4.14;69.64;95846.44;5040024;28;20206;-84
2022/02/01 11:50:12;;;;;;;3.87;2.10;;;;;;;4.03;69.13;95838.91;5030473;28;20191;-84
2022/02/01 11:52:44;;;;;;;6.23;2.10;;;;;;;3.95;69.13;95844.66;5038919;28;20205;-84
2022/02/01 11:55:11;;;;;;;7.83;3.93;;;;;;;3.92;68.90;95847.44;5034639;28;20221;-84
2022/02/01 11:57:42;;;;;;;3.97;1.97;;;;;;;4.04;68.54;95836.22;5033443;28;20194;-84
2022/02/01 12:00:16;;;;;;;4.67;2.13;;;;;;;4.04;69.41;95802.31;5039421;28;20194;-84
2022/02/01 12:02:50;;;;;;;4.70;2.03;;;;;;;4.00;68.49;95827.25;5031971;28;20198;-84
2022/02/01 12:05:19;;;;;;;4.10;2.20;;;;;;;3.93;68.19;95817.69;5029383;28;20903;-83
2022/02/01 12:07:52;;;;;;;6.83;2.40;;;;;;;4.13;68.15;95821.91;5028764;28;20218;-84
2022/02/01 12:10:20;;;;;;;4.90;2.13;;;;;;;4.09;67.74;95803.50;5032658;28;20214;-84
2022/02/01 12:12:47;;;;;;;5.80;1.80;;;;;;;4.08;67.77;95781.50;5024465;28;20245;-83
2022/02/01 12:15:14;;;;;;;2.87;1.83;;;;;;;4.03;67.76;95781.13;5018335;28;20230;-83
2022/02/01 12:17:45;;;;;;;5.03;2.00;;;;;;;4.09;67.96;95767.03;5013058;28;20193;-84
2022/02/01 12:20:17;;;;;;;3.77;1.83;;;;;;;4.12;68.21;95764.22;5011636;28;20206;-84
2022/02/01 12:22:59;;;;;;;3.47;1.60;;;;;;;4.11;68.45;95762.63;5014073;28;20210;-84
2022/02/01 12:25:26;;;;;;;5.83;2.20;;;;;;;4.04;68.24;95766.66;5018225;28;20219;-83
2022/02/01 12:27:52;;;;;;;4.40;2.43;;;;;;;3.98;68.44;95754.44;5010020;28;20278;-84
2022/02/01 12:30:19;;;;;;;3.80;2.23;;;;;;;3.92;67.87;95745.56;5014925;28;20677;-84
2022/02/01 12:32:50;;;;;;;4.80;2.00;;;;;;;3.86;68.57;95737.63;5029037;28;20240;-84
2022/02/01 12:35:18;;;;;;;6.53;1.90;;;;;;;3.79;68.96;95733.09;5032160;28;20222;-84
2022/02/01 12:37:44;;;;;;;3.80;1.83;;;;;;;3.68;69.05;95733.19;5031638;28;20201;-84
2022/02/01 12:40:12;;;;;;;3.00;1.67;;;;;;;3.62;69.43;95738.81;5032351;28;20563;-84
2022/02/01 12:42:45;;;;;;;4.00;2.37;;;;;;;3.64;70.85;95729.31;5035124;28;20336;-84
2022/02/01 12:47:59;;;;;;;6.00;1.90;;;;;;;3.53;72.27;95731.94;5035316;28;20218;-84
2022/02/01 12:50:28;;;;;;;3.30;1.80;;;;;;;3.50;72.26;95742.38;5029662;28;20721;-85
2022/02/01 12:52:57;;;;;;;6.80;2.17;;;;;;;3.55;73.17;95739.44;5031374;28;20206;-84